Time;durP1;ratioP1;P1;durP2;ratioP2;P2;SDS_P1;SDS_P2;PMS_P1;PMS_P2;Temp;Humidity;BMP_temperature;BMP_pressure;BME280_temperature;BME280_humidity;BME280_pressure;Samples;Min_cycle;Max_cycle;Signal;HPM_P1;HPM_P2
2024/04/02 00:00:35;;;;;;;;;;;10.60;99.90;;;;;;4989858;28;20397;-73
2024/04/02 00:03:01;;;;;;;;;;;10.70;99.90;;;;;;4989309;28;20392;-73
2024/04/02 00:05:28;;;;;;;;;;;10.70;99.90;;;;;;5011968;28;20018;-73
2024/04/02 00:07:53;;;;;;;;;;;10.70;99.90;;;;;;5026157;28;19917;-72
2024/04/02 00:10:19;;;;;;;;;;;10.70;99.90;;;;;;5014318;28;20304;-76
2024/04/02 00:12:44;;;;;;;;;;;10.60;99.90;;;;;;5001483;28;19996;-76
2024/04/02 00:15:10;;;;;;;;;;;10.80;99.90;;;;;;4992664;28;20446;-76
2024/04/02 00:17:35;;;;;;;;;;;10.80;99.90;;;;;;4997382;28;19914;-76
2024/04/02 00:20:04;;;;;;;;;;;10.80;99.90;;;;;;4996947;28;19947;-76
2024/04/02 00:22:30;;;;;;;;;;;10.80;99.90;;;;;;4992364;28;19921;-77
2024/04/02 00:24:56;;;;;;;;;;;10.80;99.90;;;;;;4989889;28;20331;-76
2024/04/02 00:27:21;;;;;;;;;;;10.80;99.90;;;;;;4995000;28;19913;-77
2024/04/02 00:29:47;;;;;;;;;;;10.70;99.90;;;;;;4994712;28;20321;-77
2024/04/02 00:32:12;;;;;;;;;;;10.70;99.90;;;;;;4992541;28;19910;-77
2024/04/02 00:34:42;;;;;;;;;;;10.60;99.90;;;;;;4992995;28;19918;-77
2024/04/02 00:37:08;;;;;;;;;;;10.60;99.90;;;;;;5010302;28;19914;-77
2024/04/02 00:39:36;;;;;;;;;;;10.50;99.90;;;;;;4993654;28;20001;-77
2024/04/02 00:42:01;;;;;;;;;;;10.50;99.90;;;;;;5000667;28;19909;-77
2024/04/02 00:44:27;;;;;;;;;;;10.50;99.90;;;;;;4979537;28;19955;-77
2024/04/02 00:46:53;;;;;;;;;;;10.50;99.90;;;;;;4994305;28;20377;-78
2024/04/02 00:49:18;;;;;;;;;;;10.50;99.90;;;;;;4991430;28;19914;-77
2024/04/02 00:51:44;;;;;;;;;;;10.30;99.90;;;;;;4993061;28;20567;-77
2024/04/02 00:54:09;;;;;;;;;;;10.40;99.90;;;;;;4978070;28;19998;-78
2024/04/02 00:56:35;;;;;;;;;;;10.30;99.90;;;;;;4997163;28;19967;-77
2024/04/02 00:59:01;;;;;;;;;;;10.30;99.90;;;;;;4992670;28;19971;-77
2024/04/02 01:01:26;;;;;;;;;;;10.40;99.90;;;;;;4993382;28;20369;-78
2024/04/02 01:03:52;;;;;;;;;;;10.40;99.90;;;;;;5005235;28;20377;-77
2024/04/02 01:06:18;;;;;;;;;;;10.30;99.90;;;;;;4982258;28;19915;-77
2024/04/02 01:08:43;;;;;;;;;;;10.10;99.90;;;;;;4989414;28;19914;-77
2024/04/02 01:11:09;;;;;;;;;;;10.10;99.90;;;;;;4991269;28;19964;-78
2024/04/02 01:13:35;;;;;;;;;;;10.20;99.90;;;;;;4991213;28;20391;-77
2024/04/02 01:16:04;;;;;;;;;;;10.30;99.90;;;;;;4990633;28;19914;-78
2024/04/02 01:18:29;;;;;;;;;;;10.30;99.90;;;;;;4995144;28;19917;-77
2024/04/02 01:20:55;;;;;;;;;;;10.20;99.90;;;;;;5000261;28;19910;-77
2024/04/02 01:23:22;;;;;;;;;;;10.10;99.90;;;;;;4999854;28;20360;-77
2024/04/02 01:25:47;;;;;;;;;;;10.10;99.90;;;;;;5009838;28;19913;-78
2024/04/02 01:28:13;;;;;;;;;;;10.00;99.90;;;;;;5008618;28;19916;-79
2024/04/02 01:30:38;;;;;;;;;;;10.10;99.90;;;;;;4998557;28;20009;-78
2024/04/02 01:33:04;;;;;;;;;;;10.20;99.90;;;;;;5006037;28;19909;-77
2024/04/02 01:35:30;;;;;;;;;;;10.10;99.90;;;;;;4999567;28;19988;-78
2024/04/02 01:37:56;;;;;;;;;;;10.20;99.90;;;;;;4992906;28;19917;-77
2024/04/02 01:40:21;;;;;;;;;;;10.20;99.90;;;;;;4998002;28;19918;-77
2024/04/02 01:42:47;;;;;;;;;;;10.20;99.90;;;;;;5008165;28;19913;-79
2024/04/02 01:45:12;;;;;;;;;;;10.30;99.90;;;;;;5010289;28;20360;-77
2024/04/02 01:47:38;;;;;;;;;;;10.20;99.90;;;;;;5008939;28;19914;-77
2024/04/02 01:50:04;;;;;;;;;;;10.10;99.90;;;;;;5000015;28;19948;-78
2024/04/02 01:52:29;;;;;;;;;;;9.80;99.90;;;;;;5005511;28;19920;-78
2024/04/02 01:54:54;;;;;;;;;;;9.90;99.90;;;;;;5009424;28;19967;-78
2024/04/02 01:57:20;;;;;;;;;;;10.00;99.90;;;;;;4994978;28;19918;-77
2024/04/02 01:59:45;;;;;;;;;;;10.00;99.90;;;;;;5009815;28;20368;-78
2024/04/02 02:02:11;;;;;;;;;;;10.00;99.90;;;;;;4998287;28;19909;-77
2024/04/02 02:04:37;;;;;;;;;;;9.90;99.90;;;;;;5009695;28;19914;-77
2024/04/02 02:07:02;;;;;;;;;;;10.00;99.90;;;;;;5006979;28;19916;-77
2024/04/02 02:09:28;;;;;;;;;;;9.90;99.90;;;;;;4990969;28;19922;-77
2024/04/02 02:11:53;;;;;;;;;;;10.00;99.90;;;;;;4994709;28;19925;-78
2024/04/02 02:14:19;;;;;;;;;;;10.00;99.90;;;;;;4997538;28;20383;-78
2024/04/02 02:16:44;;;;;;;;;;;10.00;99.90;;;;;;4990747;28;19910;-78
2024/04/02 02:19:10;;;;;;;;;;;10.00;99.90;;;;;;5019643;28;19913;-78
2024/04/02 02:21:36;;;;;;;;;;;10.00;99.90;;;;;;5006202;28;19935;-78
2024/04/02 02:24:02;;;;;;;;;;;10.00;99.90;;;;;;5010388;28;19962;-78
2024/04/02 02:26:28;;;;;;;;;;;10.00;99.90;;;;;;4980886;28;20373;-77
2024/04/02 02:28:54;;;;;;;;;;;9.90;99.90;;;;;;4989488;28;19932;-78
2024/04/02 02:31:19;;;;;;;;;;;10.00;99.90;;;;;;5001595;28;19910;-77
2024/04/02 02:33:48;;;;;;;;;;;10.00;99.90;;;;;;5008456;28;19914;-77
2024/04/02 02:36:14;;;;;;;;;;;10.20;99.90;;;;;;5005945;28;20284;-78
2024/04/02 02:38:39;;;;;;;;;;;10.30;99.90;;;;;;5000675;28;19910;-77
2024/04/02 02:41:05;;;;;;;;;;;10.20;99.90;;;;;;4991046;28;19917;-77
2024/04/02 02:43:30;;;;;;;;;;;10.20;99.90;;;;;;4999795;28;19913;-77
2024/04/02 02:45:56;;;;;;;;;;;10.40;99.90;;;;;;4996894;28;19909;-78
2024/04/02 02:48:21;;;;;;;;;;;10.40;99.90;;;;;;4999360;28;19914;-76
2024/04/02 02:50:47;;;;;;;;;;;10.50;99.90;;;;;;4988321;28;19918;-77
2024/04/02 02:53:13;;;;;;;;;;;10.40;99.90;;;;;;5000754;28;19962;-77
2024/04/02 02:55:39;;;;;;;;;;;10.30;99.90;;;;;;5009068;28;20356;-77
2024/04/02 02:58:04;;;;;;;;;;;10.30;99.90;;;;;;5011045;28;19960;-77
2024/04/02 03:00:30;;;;;;;;;;;10.20;99.90;;;;;;4993128;28;20377;-79
2024/04/02 03:02:55;;;;;;;;;;;10.10;99.90;;;;;;4984331;28;19918;-77
2024/04/02 03:05:21;;;;;;;;;;;10.10;99.90;;;;;;5000692;28;20023;-75
2024/04/02 03:07:47;;;;;;;;;;;10.20;99.90;;;;;;5045240;28;20489;-78
2024/04/02 03:10:12;;;;;;;;;;;10.30;99.90;;;;;;4991042;28;19925;-78
2024/04/02 03:12:38;;;;;;;;;;;10.40;99.90;;;;;;4999077;28;20011;-76
2024/04/02 03:15:04;;;;;;;;;;;10.40;99.90;;;;;;4997152;28;19917;-75
2024/04/02 03:17:29;;;;;;;;;;;10.40;99.90;;;;;;5010582;28;20277;-76
2024/04/02 03:19:55;;;;;;;;;;;10.30;99.90;;;;;;5000564;28;20426;-77
2024/04/02 03:22:21;;;;;;;;;;;10.40;99.90;;;;;;4990541;28;19996;-77
2024/04/02 03:24:46;;;;;;;;;;;10.40;99.90;;;;;;5005479;28;19922;-77
2024/04/02 03:27:12;;;;;;;;;;;10.40;99.90;;;;;;5010093;28;20325;-76
2024/04/02 03:29:38;;;;;;;;;;;10.30;99.90;;;;;;5017545;28;19977;-78
2024/04/02 03:32:04;;;;;;;;;;;10.20;99.90;;;;;;5016535;28;19945;-76
2024/04/02 03:34:29;;;;;;;;;;;10.30;99.90;;;;;;5028039;28;19960;-77
2024/04/02 03:36:55;;;;;;;;;;;10.30;99.90;;;;;;5011666;28;20296;-77
2024/04/02 03:39:21;;;;;;;;;;;10.40;99.90;;;;;;4992636;28;19929;-77
2024/04/02 03:41:47;;;;;;;;;;;10.30;99.90;;;;;;4989619;28;19910;-77
2024/04/02 03:44:12;;;;;;;;;;;10.40;99.90;;;;;;5004130;28;20414;-78
2024/04/02 03:46:38;;;;;;;;;;;10.60;99.90;;;;;;5001523;28;19910;-77
2024/04/02 03:49:03;;;;;;;;;;;10.60;99.90;;;;;;5006571;28;20012;-76
2024/04/02 03:51:29;;;;;;;;;;;10.50;99.90;;;;;;5013090;28;20372;-77
2024/04/02 03:53:55;;;;;;;;;;;10.60;99.90;;;;;;5011710;28;19916;-77
2024/04/02 03:56:20;;;;;;;;;;;10.70;99.90;;;;;;5007271;28;19921;-76
2024/04/02 03:58:46;;;;;;;;;;;10.70;99.90;;;;;;5010795;28;20004;-77
2024/04/02 04:01:11;;;;;;;;;;;10.80;99.90;;;;;;5002863;28;20322;-77
2024/04/02 04:03:37;;;;;;;;;;;10.80;99.90;;;;;;4992301;28;19910;-78
2024/04/02 04:06:03;;;;;;;;;;;10.70;99.90;;;;;;4993520;28;19955;-77
2024/04/02 04:08:30;;;;;;;;;;;10.70;99.90;;;;;;4992799;28;19967;-78
2024/04/02 04:10:55;;;;;;;;;;;10.80;99.90;;;;;;4994186;28;19917;-77
2024/04/02 04:13:21;;;;;;;;;;;10.60;99.90;;;;;;4995378;28;19917;-77
2024/04/02 04:15:54;;;;;;;;;;;10.50;99.90;;;;;;4994944;28;19910;-78
2024/04/02 04:18:20;;;;;;;;;;;10.50;99.90;;;;;;4993529;28;20283;-77
2024/04/02 04:20:59;;;;;;;;;;;10.40;99.90;;;;;;4994266;28;19920;-78
2024/04/02 04:23:24;;;;;;;;;;;10.40;99.90;;;;;;4979791;28;19914;-78
2024/04/02 04:25:57;;;;;;;;;;;10.50;99.90;;;;;;4992895;28;19918;-76
2024/04/02 04:28:23;;;;;;;;;;;10.50;99.90;;;;;;5001224;28;19940;-75
2024/04/02 04:30:55;;;;;;;;;;;10.50;99.90;;;;;;5010043;28;19914;-76
2024/04/02 04:33:21;;;;;;;;;;;10.60;99.90;;;;;;4999164;28;20319;-76
2024/04/02 04:35:46;;;;;;;;;;;10.70;99.90;;;;;;4993430;28;19914;-76
2024/04/02 04:38:13;;;;;;;;;;;10.70;99.90;;;;;;4979991;28;19910;-77
2024/04/02 04:40:39;;;;;;;;;;;10.70;99.90;;;;;;4993467;28;19960;-77
2024/04/02 04:43:04;;;;;;;;;;;10.70;99.90;;;;;;4993321;28;19960;-76
2024/04/02 04:45:30;;;;;;;;;;;10.70;99.90;;;;;;4993365;28;20368;-76
2024/04/02 04:47:57;;;;;;;;;;;10.80;99.90;;;;;;4993047;28;19935;-77
2024/04/02 04:50:23;;;;;;;;;;;10.90;99.90;;;;;;4993421;28;19909;-77
2024/04/02 04:52:48;;;;;;;;;;;10.90;99.90;;;;;;4992521;28;19921;-77
2024/04/02 04:55:14;;;;;;;;;;;10.90;99.90;;;;;;4993055;28;20328;-77
2024/04/02 04:57:39;;;;;;;;;;;11.00;99.90;;;;;;4989872;28;20009;-78
2024/04/02 05:00:05;;;;;;;;;;;11.00;99.90;;;;;;4991476;28;19918;-77
2024/04/02 05:02:30;;;;;;;;;;;10.80;99.90;;;;;;4992399;28;19992;-77
2024/04/02 05:04:56;;;;;;;;;;;10.90;99.90;;;;;;4996217;28;20321;-77
2024/04/02 05:07:22;;;;;;;;;;;10.90;99.90;;;;;;5011488;28;19916;-77
2024/04/02 05:09:48;;;;;;;;;;;10.80;99.90;;;;;;5012042;28;19979;-77
2024/04/02 05:12:14;;;;;;;;;;;10.90;99.90;;;;;;5003208;28;20369;-76
2024/04/02 05:14:40;;;;;;;;;;;10.80;99.90;;;;;;4988003;28;19914;-77
2024/04/02 05:17:05;;;;;;;;;;;10.80;99.90;;;;;;4991950;28;20248;-78
2024/04/02 05:19:31;;;;;;;;;;;10.90;99.90;;;;;;4990705;28;19956;-76
2024/04/02 05:21:56;;;;;;;;;;;10.90;99.90;;;;;;4992481;28;19948;-76
2024/04/02 05:24:22;;;;;;;;;;;11.00;99.90;;;;;;4996190;28;20307;-76
2024/04/02 05:26:47;;;;;;;;;;;11.00;99.90;;;;;;4990742;28;19918;-77
2024/04/02 05:29:16;;;;;;;;;;;10.80;99.90;;;;;;4997693;28;19948;-76
2024/04/02 05:31:42;;;;;;;;;;;10.90;99.90;;;;;;4991443;28;19990;-76
2024/04/02 05:34:07;;;;;;;;;;;11.00;99.90;;;;;;4995115;28;19930;-76
2024/04/02 05:36:34;;;;;;;;;;;11.00;99.90;;;;;;5002187;28;20466;-76
2024/04/02 05:39:00;;;;;;;;;;;11.00;99.90;;;;;;5005359;28;19975;-77
2024/04/02 05:41:25;;;;;;;;;;;11.10;99.90;;;;;;4993932;28;19909;-76
2024/04/02 05:43:51;;;;;;;;;;;11.20;99.90;;;;;;4991815;28;19910;-76
2024/04/02 05:46:16;;;;;;;;;;;11.40;99.90;;;;;;4999696;28;19914;-76
2024/04/02 05:48:45;;;;;;;;;;;11.60;99.90;;;;;;5003459;28;19916;-75
2024/04/02 05:51:10;;;;;;;;;;;11.50;99.90;;;;;;4991733;28;19917;-75
2024/04/02 05:53:36;;;;;;;;;;;11.50;99.90;;;;;;4979525;28;20277;-78
2024/04/02 05:56:03;;;;;;;;;;;11.70;99.90;;;;;;4990716;28;19964;-76
2024/04/02 05:58:28;;;;;;;;;;;11.80;99.90;;;;;;4991156;28;19914;-76
2024/04/02 06:01:04;;;;;;;;;;;12.00;99.90;;;;;;4978977;28;19963;-78
2024/04/02 06:03:29;;;;;;;;;;;11.90;99.90;;;;;;4998912;28;19970;-76
2024/04/02 06:05:55;;;;;;;;;;;12.00;99.90;;;;;;4998251;28;19997;-77
2024/04/02 06:08:20;;;;;;;;;;;12.10;99.90;;;;;;4996983;28;19920;-76
2024/04/02 06:10:46;;;;;;;;;;;12.40;99.90;;;;;;4990587;28;19926;-76
2024/04/02 06:13:12;;;;;;;;;;;12.30;99.90;;;;;;4996544;28;19916;-75
2024/04/02 06:15:38;;;;;;;;;;;12.30;99.90;;;;;;4993197;28;19990;-75
2024/04/02 06:18:04;;;;;;;;;;;12.30;99.90;;;;;;5002361;28;19967;-75
2024/04/02 06:20:29;;;;;;;;;;;12.40;99.90;;;;;;4999868;28;19918;-76
2024/04/02 06:22:55;;;;;;;;;;;12.40;99.90;;;;;;5003334;28;19917;-75
2024/04/02 06:25:20;;;;;;;;;;;12.50;99.90;;;;;;5000012;28;19914;-76
2024/04/02 06:27:46;;;;;;;;;;;12.60;99.90;;;;;;5002579;28;19995;-77
2024/04/02 06:30:11;;;;;;;;;;;12.80;99.90;;;;;;4991195;28;19910;-76
2024/04/02 06:32:37;;;;;;;;;;;12.70;99.90;;;;;;5002097;28;20011;-75
2024/04/02 06:35:02;;;;;;;;;;;12.60;99.90;;;;;;4990139;28;20348;-76
2024/04/02 06:37:28;;;;;;;;;;;12.60;99.90;;;;;;5002994;28;19914;-76
2024/04/02 06:39:53;;;;;;;;;;;12.80;99.90;;;;;;4996978;28;19918;-76
2024/04/02 06:42:19;;;;;;;;;;;12.70;99.90;;;;;;4995689;28;19914;-76
2024/04/02 06:44:44;;;;;;;;;;;12.70;99.90;;;;;;4993632;28;19918;-76
2024/04/02 06:47:10;;;;;;;;;;;12.70;99.90;;;;;;4998121;28;19910;-76
2024/04/02 06:49:35;;;;;;;;;;;12.90;99.90;;;;;;4992520;28;19910;-76
2024/04/02 06:52:01;;;;;;;;;;;12.90;99.90;;;;;;4996436;28;19916;-76
2024/04/02 06:54:26;;;;;;;;;;;12.90;99.90;;;;;;4992870;28;20301;-76
2024/04/02 06:56:52;;;;;;;;;;;12.80;99.90;;;;;;4995961;28;19923;-76
2024/04/02 06:59:17;;;;;;;;;;;12.90;99.90;;;;;;4987643;28;19945;-76
2024/04/02 07:01:43;;;;;;;;;;;12.90;99.90;;;;;;4989160;28;20076;-76
2024/04/02 07:04:08;;;;;;;;;;;13.10;99.90;;;;;;4993323;28;19962;-75
2024/04/02 07:06:34;;;;;;;;;;;13.00;99.90;;;;;;5005796;28;19910;-75
2024/04/02 07:08:59;;;;;;;;;;;13.20;99.90;;;;;;4991221;28;20288;-76
2024/04/02 07:11:25;;;;;;;;;;;13.20;99.90;;;;;;4991736;28;19918;-76
2024/04/02 07:13:50;;;;;;;;;;;13.10;99.90;;;;;;4989108;28;19910;-75
2024/04/02 07:16:16;;;;;;;;;;;13.20;99.90;;;;;;4990382;28;19958;-75
2024/04/02 07:18:42;;;;;;;;;;;13.30;99.90;;;;;;4990519;28;19910;-75
2024/04/02 07:21:08;;;;;;;;;;;13.30;99.90;;;;;;4989011;28;20047;-77
2024/04/02 07:23:35;;;;;;;;;;;13.30;99.90;;;;;;4991231;28;19910;-76
2024/04/02 07:26:01;;;;;;;;;;;13.30;99.90;;;;;;4989991;28;19917;-76
2024/04/02 07:28:26;;;;;;;;;;;13.40;99.90;;;;;;4990709;28;19996;-76
2024/04/02 07:30:54;;;;;;;;;;;13.60;99.90;;;;;;4998868;28;20287;-76
2024/04/02 07:33:20;;;;;;;;;;;13.70;99.90;;;;;;4998378;28;20335;-77
2024/04/02 07:35:45;;;;;;;;;;;13.70;99.90;;;;;;4991117;28;19910;-77
2024/04/02 07:38:11;;;;;;;;;;;13.70;99.90;;;;;;4998751;28;19963;-77
2024/04/02 07:40:37;;;;;;;;;;;14.00;99.90;;;;;;5004534;28;19961;-77
2024/04/02 07:43:03;;;;;;;;;;;14.20;99.90;;;;;;4997506;28;19910;-76
2024/04/02 07:45:28;;;;;;;;;;;14.20;99.90;;;;;;4995430;28;20422;-77
2024/04/02 07:47:54;;;;;;;;;;;14.10;99.90;;;;;;4997380;28;19909;-76
2024/04/02 07:50:20;;;;;;;;;;;14.20;99.90;;;;;;4994520;28;19916;-77
2024/04/02 07:52:47;;;;;;;;;;;14.20;99.90;;;;;;4990981;28;20411;-77
2024/04/02 07:55:12;;;;;;;;;;;14.30;99.90;;;;;;5004897;28;20000;-77
2024/04/02 07:57:38;;;;;;;;;;;14.20;99.90;;;;;;4999458;28;19975;-76
2024/04/02 08:00:03;;;;;;;;;;;14.30;99.90;;;;;;4998975;28;20446;-80
2024/04/02 08:02:29;;;;;;;;;;;14.40;99.90;;;;;;4990221;28;19918;-79
2024/04/02 08:04:55;;;;;;;;;;;14.40;99.90;;;;;;4991012;28;20009;-76
2024/04/02 08:07:21;;;;;;;;;;;14.40;99.90;;;;;;5003294;28;19917;-77
2024/04/02 08:09:46;;;;;;;;;;;14.40;99.90;;;;;;4988356;28;19936;-76
2024/04/02 08:12:12;;;;;;;;;;;14.40;99.90;;;;;;5008386;28;19919;-76
2024/04/02 08:14:38;;;;;;;;;;;14.50;99.90;;;;;;5007464;28;19916;-76
2024/04/02 08:17:04;;;;;;;;;;;14.40;99.90;;;;;;4997669;28;19914;-77
2024/04/02 08:19:29;;;;;;;;;;;14.40;99.90;;;;;;4989718;28;20388;-77
2024/04/02 08:21:55;;;;;;;;;;;14.40;99.90;;;;;;5006097;28;19910;-76
2024/04/02 08:24:21;;;;;;;;;;;14.50;99.90;;;;;;5008669;28;19914;-77
2024/04/02 08:26:46;;;;;;;;;;;14.40;99.90;;;;;;4994397;28;19913;-77
2024/04/02 08:29:12;;;;;;;;;;;14.40;99.90;;;;;;5007774;28;19921;-76
2024/04/02 08:31:37;;;;;;;;;;;14.50;99.90;;;;;;4995708;28;20053;-80
2024/04/02 08:34:03;;;;;;;;;;;14.50;99.90;;;;;;4999652;28;20288;-75
2024/04/02 08:36:29;;;;;;;;;;;14.60;99.90;;;;;;5004562;28;20404;-75
2024/04/02 08:38:55;;;;;;;;;;;14.50;99.90;;;;;;4992578;28;19918;-75
2024/04/02 08:41:21;;;;;;;;;;;14.50;99.90;;;;;;4992739;28;20369;-76
2024/04/02 08:43:47;;;;;;;;;;;14.40;99.90;;;;;;5003076;28;19909;-76
2024/04/02 08:46:13;;;;;;;;;;;14.40;99.90;;;;;;4993162;28;19910;-77
2024/04/02 08:48:38;;;;;;;;;;;14.30;99.90;;;;;;5002243;28;19916;-77
2024/04/02 08:51:07;;;;;;;;;;;14.50;99.90;;;;;;5009280;28;20007;-75
2024/04/02 08:53:33;;;;;;;;;;;14.40;99.90;;;;;;5009934;28;19951;-76
2024/04/02 08:55:59;;;;;;;;;;;14.60;99.90;;;;;;4992324;28;19917;-75
2024/04/02 08:58:26;;;;;;;;;;;14.70;99.90;;;;;;4992246;28;20408;-75
2024/04/02 09:00:52;;;;;;;;;;;14.70;99.90;;;;;;4993309;28;19940;-74
2024/04/02 09:03:19;;;;;;;;;;;14.80;99.90;;;;;;4992617;28;19917;-76
2024/04/02 09:05:44;;;;;;;;;;;14.70;99.90;;;;;;4989787;28;19963;-76
2024/04/02 09:08:12;;;;;;;;;;;14.90;99.90;;;;;;5003646;28;19913;-77
2024/04/02 09:10:38;;;;;;;;;;;15.00;99.90;;;;;;5011605;28;19924;-75
2024/04/02 09:13:03;;;;;;;;;;;15.00;99.90;;;;;;5012904;28;19910;-78
2024/04/02 09:15:29;;;;;;;;;;;14.90;99.90;;;;;;5005380;28;19914;-75
2024/04/02 09:17:55;;;;;;;;;;;14.80;99.90;;;;;;5005286;28;20267;-78
2024/04/02 09:20:21;;;;;;;;;;;14.80;99.90;;;;;;5003264;28;19922;-76
2024/04/02 09:22:47;;;;;;;;;;;14.80;99.90;;;;;;4992455;28;19913;-77
2024/04/02 09:25:13;;;;;;;;;;;15.00;99.90;;;;;;4998520;28;19913;-74
2024/04/02 09:27:38;;;;;;;;;;;14.90;99.90;;;;;;5009715;28;19967;-75
2024/04/02 09:30:04;;;;;;;;;;;14.80;99.90;;;;;;4992455;28;19914;-78
2024/04/02 09:32:35;;;;;;;;;;;14.80;99.90;;;;;;4992566;28;19917;-79
2024/04/02 09:35:02;;;;;;;;;;;14.40;99.90;;;;;;4981713;28;19925;-76
2024/04/02 09:37:31;;;;;;;;;;;14.30;99.90;;;;;;5004884;28;19913;-75
2024/04/02 09:39:56;;;;;;;;;;;14.30;99.90;;;;;;5010784;28;19925;-77
2024/04/02 09:42:23;;;;;;;;;;;14.40;99.90;;;;;;4997037;28;19914;-76
2024/04/02 09:44:49;;;;;;;;;;;14.70;99.90;;;;;;5009750;28;20059;-77
2024/04/02 09:47:18;;;;;;;;;;;14.80;99.90;;;;;;4995938;28;20004;-77
2024/04/02 09:49:44;;;;;;;;;;;15.10;99.90;;;;;;5008880;28;20345;-76
2024/04/02 09:52:09;;;;;;;;;;;15.50;99.90;;;;;;4997525;28;20004;-76
2024/04/02 09:54:35;;;;;;;;;;;15.70;99.90;;;;;;5002279;28;20002;-76
2024/04/02 09:57:02;;;;;;;;;;;15.90;99.90;;;;;;5005595;28;20269;-76
2024/04/02 09:59:27;;;;;;;;;;;15.90;99.90;;;;;;5009082;28;20082;-76
2024/04/02 10:01:53;;;;;;;;;;;15.80;99.90;;;;;;4996631;28;20380;-76
2024/04/02 10:04:22;;;;;;;;;;;15.60;99.90;;;;;;4999144;28;19913;-77
2024/04/02 10:06:50;;;;;;;;;;;15.30;99.90;;;;;;5004082;28;19910;-80
2024/04/02 10:09:16;;;;;;;;;;;15.10;99.90;;;;;;4991316;28;20071;-76
2024/04/02 10:11:43;;;;;;;;;;;14.90;99.90;;;;;;4991861;28;20292;-75
2024/04/02 10:14:10;;;;;;;;;;;14.60;99.90;;;;;;4992470;28;20469;-76
2024/04/02 10:16:39;;;;;;;;;;;14.30;99.90;;;;;;5012675;28;19995;-75
2024/04/02 10:19:04;;;;;;;;;;;14.10;99.90;;;;;;5000836;28;20063;-75
2024/04/02 10:21:31;;;;;;;;;;;13.90;99.90;;;;;;4994221;28;20004;-76
2024/04/02 10:23:58;;;;;;;;;;;14.00;99.90;;;;;;4981374;28;19917;-77
2024/04/02 10:26:24;;;;;;;;;;;14.10;99.90;;;;;;4986976;28;19922;-76
2024/04/02 10:28:53;;;;;;;;;;;14.10;99.90;;;;;;4979801;28;19966;-75
2024/04/02 10:31:18;;;;;;;;;;;14.00;99.90;;;;;;4986518;28;19981;-74
2024/04/02 10:33:47;;;;;;;;;;;14.20;99.90;;;;;;4980510;28;19914;-76
2024/04/02 10:36:13;;;;;;;;;;;13.90;99.90;;;;;;4989888;28;19917;-76
2024/04/02 10:38:39;;;;;;;;;;;14.00;99.90;;;;;;4989433;28;19914;-79
2024/04/02 10:41:07;;;;;;;;;;;14.10;99.90;;;;;;4990870;28;19925;-75
2024/04/02 10:43:33;;;;;;;;;;;14.20;99.90;;;;;;4990175;28;19929;-78
2024/04/02 10:45:58;;;;;;;;;;;14.20;99.90;;;;;;4978963;28;19995;-75
2024/04/02 10:48:24;;;;;;;;;;;14.10;99.90;;;;;;4991729;28;19910;-75
2024/04/02 10:50:53;;;;;;;;;;;14.10;99.90;;;;;;4990905;28;19910;-76
2024/04/02 10:53:18;;;;;;;;;;;13.90;99.90;;;;;;4980549;28;19910;-77
2024/04/02 10:55:44;;;;;;;;;;;13.90;99.90;;;;;;4988457;28;19937;-76
2024/04/02 10:58:10;;;;;;;;;;;13.90;99.90;;;;;;4997445;28;19918;-76
2024/04/02 11:00:36;;;;;;;;;;;13.80;99.90;;;;;;4986625;28;19929;-77
2024/04/02 11:03:02;;;;;;;;;;;13.70;99.90;;;;;;4983696;28;20376;-76
2024/04/02 11:05:27;;;;;;;;;;;13.60;99.90;;;;;;4978087;28;19909;-75
2024/04/02 11:07:53;;;;;;;;;;;13.40;99.90;;;;;;4990570;28;19917;-75
2024/04/02 11:10:18;;;;;;;;;;;13.10;99.90;;;;;;4989714;28;19921;-74
2024/04/02 11:12:44;;;;;;;;;;;13.10;99.90;;;;;;4980665;28;19952;-75
2024/04/02 11:15:10;;;;;;;;;;;12.90;99.90;;;;;;4985539;28;20032;-75
2024/04/02 11:17:36;;;;;;;;;;;12.70;99.90;;;;;;4989428;28;20344;-77
2024/04/02 11:20:11;;;;;;;;;;;12.70;99.90;;;;;;5005499;28;19959;-75
2024/04/02 11:25:34;;;;;;;;;;;12.60;99.90;;;;;;4989544;28;19909;-76
2024/04/02 11:28:04;;;;;;;;;;;12.40;99.90;;;;;;4989427;28;20004;-77
2024/04/02 11:30:29;;;;;;;;;;;12.50;99.90;;;;;;4989554;28;20021;-76
2024/04/02 11:32:55;;;;;;;;;;;12.70;99.90;;;;;;5005186;28;19953;-75
2024/04/02 11:35:20;;;;;;;;;;;12.90;99.90;;;;;;5009169;28;19917;-77
2024/04/02 11:37:46;;;;;;;;;;;13.20;99.90;;;;;;4990343;28;19916;-76
2024/04/02 11:40:18;;;;;;;;;;;13.30;99.90;;;;;;4971015;28;19918;-75
2024/04/02 11:42:43;;;;;;;;;;;13.30;99.90;;;;;;4990089;28;19958;-76
2024/04/02 11:45:09;;;;;;;;;;;13.60;99.90;;;;;;4999014;28;20009;-76
2024/04/02 11:47:35;;;;;;;;;;;13.60;99.90;;;;;;4993106;28;19910;-76
2024/04/02 11:50:01;;;;;;;;;;;13.90;99.90;;;;;;5007099;28;19914;-75
2024/04/02 11:52:26;;;;;;;;;;;14.10;99.90;;;;;;5058482;28;19959;-76
2024/04/02 11:54:52;;;;;;;;;;;14.20;99.90;;;;;;4991038;28;19910;-77
2024/04/02 12:02:28;;;;;;;;;;;14.50;99.90;;;;;;4994027;28;20261;-78
2024/04/02 12:04:54;;;;;;;;;;;14.60;99.90;;;;;;5002010;28;20296;-75
2024/04/02 12:07:19;;;;;;;;;;;14.60;99.90;;;;;;4991824;28;19910;-75
2024/04/02 12:09:49;;;;;;;;;;;14.60;99.90;;;;;;5003815;28;19959;-72
2024/04/02 12:12:15;;;;;;;;;;;14.40;99.90;;;;;;5011755;28;19913;-72
2024/04/02 12:14:40;;;;;;;;;;;14.50;99.90;;;;;;5012130;28;20373;-73
2024/04/02 12:17:06;;;;;;;;;;;14.90;99.90;;;;;;5011412;28;20276;-72
2024/04/02 12:19:32;;;;;;;;;;;15.20;99.90;;;;;;5005975;28;19929;-74
2024/04/02 12:21:57;;;;;;;;;;;15.40;99.90;;;;;;5000020;28;19916;-72
2024/04/02 12:24:23;;;;;;;;;;;15.60;99.90;;;;;;5011087;28;20376;-72
2024/04/02 12:26:48;;;;;;;;;;;15.80;99.90;;;;;;5010830;28;20003;-72
2024/04/02 12:29:14;;;;;;;;;;;15.90;99.90;;;;;;5010327;28;19962;-71
2024/04/02 12:31:39;;;;;;;;;;;15.90;99.90;;;;;;5010321;28;19921;-74
2024/04/02 12:34:05;;;;;;;;;;;15.90;99.90;;;;;;5010577;28;19910;-71
2024/04/02 12:36:30;;;;;;;;;;;15.80;99.90;;;;;;5002340;28;19909;-72
2024/04/02 12:38:56;;;;;;;;;;;15.90;99.90;;;;;;5011534;28;20043;-71
2024/04/02 12:41:21;;;;;;;;;;;15.90;99.90;;;;;;4998414;28;19910;-72
2024/04/02 12:43:47;;;;;;;;;;;15.70;99.90;;;;;;5010267;28;20276;-72
2024/04/02 12:46:12;;;;;;;;;;;15.60;99.90;;;;;;4998735;28;19909;-72
2024/04/02 12:48:38;;;;;;;;;;;15.50;99.90;;;;;;5009950;28;19909;-72
2024/04/02 12:51:04;;;;;;;;;;;15.50;99.90;;;;;;4992872;28;20348;-72
2024/04/02 12:53:29;;;;;;;;;;;15.40;99.90;;;;;;5004628;28;19917;-72
2024/04/02 12:55:55;;;;;;;;;;;15.20;99.90;;;;;;5008556;28;19971;-71
2024/04/02 12:58:20;;;;;;;;;;;15.20;99.90;;;;;;5003268;28;19971;-72
2024/04/02 13:00:46;;;;;;;;;;;15.20;99.90;;;;;;4991644;28;19918;-72
2024/04/02 13:03:11;;;;;;;;;;;15.20;99.90;;;;;;4991710;28;19910;-72
2024/04/02 13:05:37;;;;;;;;;;;15.30;99.90;;;;;;4998409;28;19910;-72
2024/04/02 13:08:03;;;;;;;;;;;15.20;99.90;;;;;;5016370;28;20360;-72
2024/04/02 13:10:29;;;;;;;;;;;15.30;99.90;;;;;;5017325;28;19925;-73
2024/04/02 13:12:54;;;;;;;;;;;15.50;99.90;;;;;;4992383;28;19910;-72
2024/04/02 13:15:26;;;;;;;;;;;15.80;99.90;;;;;;4992562;28;19931;-73
2024/04/02 13:17:52;;;;;;;;;;;16.00;99.90;;;;;;4990683;28;19914;-71
2024/04/02 13:20:17;;;;;;;;;;;15.80;99.90;;;;;;4991150;28;19918;-74
2024/04/02 13:22:43;;;;;;;;;;;15.90;99.90;;;;;;4992272;28;20289;-74
2024/04/02 13:25:09;;;;;;;;;;;15.80;99.90;;;;;;4992772;28;19910;-73
2024/04/02 13:27:35;;;;;;;;;;;15.90;99.90;;;;;;4992432;28;20025;-72
2024/04/02 13:30:00;;;;;;;;;;;15.90;99.90;;;;;;4991872;28;19953;-73
2024/04/02 13:32:26;;;;;;;;;;;16.00;99.90;;;;;;4990065;28;19909;-74
2024/04/02 13:34:51;;;;;;;;;;;16.10;99.90;;;;;;4995963;28;20285;-73
2024/04/02 13:37:18;;;;;;;;;;;16.20;99.90;;;;;;5010909;28;19916;-72
2024/04/02 13:39:43;;;;;;;;;;;16.00;99.90;;;;;;5008728;28;19924;-73
2024/04/02 13:42:08;;;;;;;;;;;15.90;99.90;;;;;;5011089;28;19910;-73
2024/04/02 13:44:34;;;;;;;;;;;15.90;99.90;;;;;;5010219;28;19909;-72
2024/04/02 13:47:00;;;;;;;;;;;16.00;99.90;;;;;;5011089;28;19964;-73
2024/04/02 13:49:25;;;;;;;;;;;15.90;99.90;;;;;;4996931;28;19909;-73
2024/04/02 13:51:51;;;;;;;;;;;15.40;99.90;;;;;;5010007;28;19993;-72
2024/04/02 13:54:16;;;;;;;;;;;15.00;99.90;;;;;;5009733;28;20439;-72
2024/04/02 13:56:43;;;;;;;;;;;14.70;99.90;;;;;;5010676;28;19909;-72
2024/04/02 13:59:09;;;;;;;;;;;14.80;99.90;;;;;;5008883;28;19909;-72
2024/04/02 14:01:34;;;;;;;;;;;14.30;99.90;;;;;;4999725;28;19996;-72
2024/04/02 14:04:00;;;;;;;;;;;14.30;99.90;;;;;;4990757;28;19910;-72
2024/04/02 14:06:25;;;;;;;;;;;14.20;99.90;;;;;;4991491;28;20407;-72
2024/04/02 14:08:51;;;;;;;;;;;14.00;99.90;;;;;;4990388;28;19909;-72
2024/04/02 14:11:17;;;;;;;;;;;13.90;99.90;;;;;;4991686;28;19918;-72
2024/04/02 14:13:44;;;;;;;;;;;13.90;99.90;;;;;;4990742;28;19910;-73
2024/04/02 14:16:13;;;;;;;;;;;13.70;99.90;;;;;;4990216;28;20015;-72